Time;durP1;ratioP1;P1;durP2;ratioP2;P2;SDS_P1;SDS_P2;PMS_P1;PMS_P2;Temp;Humidity;BMP_temperature;BMP_pressure;BME280_temperature;BME280_humidity;BME280_pressure;Samples;Min_cycle;Max_cycle;Signal;HPM_P1;HPM_P2
2023/09/30 00:02:31;;;;;;;6.13;3.73;;;;;;;14.43;100.00;102090.00;6085577;29;20243;-70
2023/09/30 00:05:52;;;;;;;7.47;3.87;;;;;;;14.48;100.00;102086.91;6080857;29;20616;-70
2023/09/30 00:09:15;;;;;;;5.57;3.37;;;;;;;14.55;100.00;102093.53;6077439;29;20310;-70
2023/09/30 00:12:35;;;;;;;9.70;4.23;;;;;;;14.49;100.00;102099.50;6086718;29;20236;-70
2023/09/30 00:15:56;;;;;;;8.00;3.73;;;;;;;14.44;100.00;102090.88;6085500;29;20324;-70
2023/09/30 00:19:17;;;;;;;8.63;3.10;;;;;;;14.41;100.00;102097.41;6075117;29;20240;-70
2023/09/30 00:22:38;;;;;;;8.40;3.90;;;;;;;14.37;100.00;102101.38;6092327;29;20242;-71
2023/09/30 00:26:01;;;;;;;8.03;3.43;;;;;;;14.31;100.00;102101.03;6086360;29;20233;-70
2023/09/30 00:29:21;;;;;;;8.03;3.73;;;;;;;14.34;100.00;102101.66;6088465;29;20256;-70
2023/09/30 00:32:42;;;;;;;6.87;3.00;;;;;;;14.35;100.00;102116.94;6083440;29;20236;-70
2023/09/30 00:36:07;;;;;;;3.53;2.77;;;;;;;14.28;100.00;102109.41;6325763;23;20429;-70
2023/09/30 00:39:30;;;;;;;5.97;3.33;;;;;;;14.43;100.00;102112.72;6096602;29;20245;-70
2023/09/30 00:42:52;;;;;;;8.87;3.97;;;;;;;14.43;100.00;102117.13;6123173;29;20268;-70
2023/09/30 00:46:23;;;;;;;12.60;4.10;;;;;;;14.45;100.00;102119.75;6111027;29;20239;-70
2023/09/30 00:49:44;;;;;;;13.23;4.23;;;;;;;14.60;100.00;102117.56;6122992;28;20306;-70
2023/09/30 00:53:05;;;;;;;5.47;3.10;;;;;;;14.54;100.00;102118.09;6115723;29;20407;-70
2023/09/30 00:56:29;;;;;;;8.13;3.57;;;;;;;14.43;100.00;102123.56;6116916;28;20240;-70
2023/09/30 00:59:53;;;;;;;7.23;3.00;;;;;;;14.38;100.00;102111.25;6111671;29;20236;-70
2023/09/30 01:03:14;;;;;;;12.60;4.60;;;;;;;14.28;100.00;102120.28;6128166;29;20239;-69
2023/09/30 01:06:35;;;;;;;8.67;4.13;;;;;;;14.26;100.00;102117.69;6118271;29;21430;-71
2023/09/30 01:09:56;;;;;;;7.17;4.13;;;;;;;14.22;100.00;102120.78;6138205;28;20337;-71
2023/09/30 01:13:17;;;;;;;5.37;3.00;;;;;;;14.23;100.00;102117.94;6129209;29;21663;-72
2023/09/30 01:16:39;;;;;;;6.43;3.07;;;;;;;14.12;100.00;102112.56;6132353;29;20235;-71
2023/09/30 01:20:00;;;;;;;13.20;3.30;;;;;;;14.15;100.00;102111.44;6139955;28;20600;-71
2023/09/30 01:23:23;;;;;;;5.63;3.50;;;;;;;14.14;100.00;102116.00;6130076;28;20258;-71
2023/09/30 01:26:43;;;;;;;7.47;3.70;;;;;;;13.95;100.00;102120.38;6132776;29;20228;-70
2023/09/30 01:30:06;;;;;;;7.47;3.33;;;;;;;14.06;100.00;102121.19;6118175;29;20236;-71
2023/09/30 01:33:27;;;;;;;9.07;3.43;;;;;;;14.00;100.00;102119.00;6136906;29;20234;-71
2023/09/30 01:36:48;;;;;;;6.90;3.20;;;;;;;14.15;100.00;102117.72;6131323;28;20231;-70
2023/09/30 01:40:12;;;;;;;8.27;3.23;;;;;;;14.10;100.00;102113.69;6137506;28;20227;-70
2023/09/30 01:43:35;;;;;;;6.53;2.63;;;;;;;13.97;100.00;102124.69;6129604;28;20511;-70
2023/09/30 01:46:56;;;;;;;6.47;3.33;;;;;;;13.98;100.00;102120.13;6126935;28;20239;-69
2023/09/30 01:50:18;;;;;;;4.73;3.10;;;;;;;13.83;100.00;102124.13;6141083;28;20230;-69
2023/09/30 01:53:39;;;;;;;7.87;3.10;;;;;;;13.89;100.00;102134.44;6141454;29;20497;-70
2023/09/30 01:57:02;;;;;;;8.87;3.20;;;;;;;13.84;100.00;102142.09;6115830;29;20231;-70
2023/09/30 02:00:23;;;;;;;9.57;3.37;;;;;;;13.76;100.00;102142.72;6127060;28;20239;-70
2023/09/30 02:03:44;;;;;;;7.73;3.83;;;;;;;13.69;100.00;102137.91;6136196;28;20533;-70
2023/09/30 02:07:05;;;;;;;8.90;3.90;;;;;;;13.74;100.00;102150.13;6124182;28;20251;-70
2023/09/30 02:10:26;;;;;;;5.97;3.40;;;;;;;13.77;100.00;102140.91;6133086;28;20281;-70
2023/09/30 02:13:49;;;;;;;6.00;2.67;;;;;;;13.66;100.00;102144.47;6119780;29;21264;-70
2023/09/30 02:17:10;;;;;;;5.07;3.17;;;;;;;13.74;100.00;102144.72;6111448;28;20251;-70
2023/09/30 02:20:31;;;;;;;16.27;5.10;;;;;;;13.63;100.00;102140.16;6116033;29;20243;-70
2023/09/30 02:23:54;;;;;;;5.13;3.43;;;;;;;13.74;100.00;102150.13;6142924;28;20239;-70
2023/09/30 02:27:15;;;;;;;5.87;4.77;;;;;;;13.54;100.00;102150.88;6140365;29;20239;-70
2023/09/30 02:30:38;;;;;;;15.00;4.33;;;;;;;13.47;100.00;102149.66;6142652;28;20238;-70
2023/09/30 02:33:58;;;;;;;11.63;4.33;;;;;;;13.55;100.00;102147.19;6144939;29;20234;-70
2023/09/30 02:37:19;;;;;;;9.13;3.73;;;;;;;13.56;100.00;102151.59;6125955;28;20235;-70
2023/09/30 02:40:45;;;;;;;10.60;5.43;;;;;;;13.46;100.00;102154.22;6136626;28;20723;-70
2023/09/30 02:44:06;;;;;;;7.63;3.83;;;;;;;13.52;100.00;102148.28;6144231;29;20549;-70
2023/09/30 02:47:27;;;;;;;9.27;3.60;;;;;;;13.49;100.00;102155.81;6141117;28;20251;-70
2023/09/30 02:50:48;;;;;;;9.50;4.13;;;;;;;13.49;100.00;102158.53;6146676;28;20269;-70
2023/09/30 02:54:09;;;;;;;6.33;3.37;;;;;;;13.43;100.00;102161.72;6125210;29;20231;-69
2023/09/30 02:57:31;;;;;;;8.17;3.90;;;;;;;13.57;100.00;102156.06;6143649;28;20243;-70
2023/09/30 03:00:52;;;;;;;7.53;3.83;;;;;;;13.41;100.00;102161.81;6124203;28;20235;-70
2023/09/30 03:04:14;;;;;;;7.00;3.90;;;;;;;13.50;100.00;102158.38;6130329;29;20227;-70
2023/09/30 03:07:35;;;;;;;10.23;4.13;;;;;;;13.42;100.00;102160.00;6142110;28;20230;-70
2023/09/30 03:10:56;;;;;;;10.50;4.07;;;;;;;13.43;100.00;102162.56;6140503;28;20235;-69
2023/09/30 03:14:18;;;;;;;7.80;3.60;;;;;;;13.36;100.00;102163.19;6142540;29;20230;-69
2023/09/30 03:17:39;;;;;;;5.87;3.60;;;;;;;13.43;100.00;102172.56;6139472;28;20676;-69
2023/09/30 03:21:08;;;;;;;7.67;3.43;;;;;;;13.45;100.00;102165.19;6140872;28;20235;-69
2023/09/30 03:24:29;;;;;;;10.20;4.00;;;;;;;13.45;100.00;102166.03;6144340;28;20607;-69
2023/09/30 03:27:50;;;;;;;10.13;3.63;;;;;;;13.48;100.00;102171.19;6144137;29;20227;-70
2023/09/30 03:31:11;;;;;;;4.57;3.10;;;;;;;13.41;100.00;102167.25;6143001;29;20231;-69
2023/09/30 03:34:33;;;;;;;11.23;3.77;;;;;;;13.41;100.00;102171.81;6143481;29;20239;-69
2023/09/30 03:37:55;;;;;;;4.70;3.20;;;;;;;13.37;100.00;102170.34;6140121;28;20318;-70
2023/09/30 03:41:16;;;;;;;10.03;3.13;;;;;;;13.27;100.00;102164.78;6138117;29;20243;-70
2023/09/30 03:44:37;;;;;;;8.30;3.50;;;;;;;13.28;100.00;102174.66;6144779;28;20754;-70
2023/09/30 03:47:58;;;;;;;15.57;5.60;;;;;;;13.17;100.00;102169.22;6143097;28;20227;-70
2023/09/30 03:51:19;;;;;;;15.97;4.63;;;;;;;13.25;100.00;102163.19;6139321;28;20255;-70
2023/09/30 03:54:42;;;;;;;13.00;4.27;;;;;;;13.37;100.00;102163.06;6136926;29;20239;-70
2023/09/30 03:58:04;;;;;;;11.60;3.73;;;;;;;13.44;100.00;102167.00;6142001;29;20244;-70
2023/09/30 04:01:26;;;;;;;11.73;3.97;;;;;;;13.24;100.00;102170.47;6130667;28;20231;-70
2023/09/30 04:04:49;;;;;;;9.53;4.20;;;;;;;13.14;100.00;102166.72;6142105;29;20231;-70
2023/09/30 04:08:11;;;;;;;11.10;3.60;;;;;;;13.22;100.00;102176.97;6136556;29;20250;-70
2023/09/30 04:11:33;;;;;;;12.53;4.17;;;;;;;13.25;100.00;102168.59;6142597;28;20522;-69
2023/09/30 04:14:54;;;;;;;7.47;3.93;;;;;;;13.24;100.00;102178.59;6141638;29;20826;-69
2023/09/30 04:18:15;;;;;;;8.83;4.23;;;;;;;13.21;100.00;102175.25;6138680;28;20661;-70
2023/09/30 04:21:38;;;;;;;8.17;3.93;;;;;;;13.10;100.00;102169.81;6130310;29;20231;-70
2023/09/30 04:24:59;;;;;;;6.43;3.47;;;;;;;13.13;100.00;102181.28;6139604;28;20235;-70
2023/09/30 04:28:21;;;;;;;8.77;4.30;;;;;;;13.11;100.00;102185.06;6143946;29;20494;-70
2023/09/30 04:31:43;;;;;;;7.10;4.27;;;;;;;13.21;100.00;102183.34;6142396;29;20235;-69
2023/09/30 04:35:05;;;;;;;13.80;4.97;;;;;;;13.23;100.00;102184.97;6140336;28;20227;-70
2023/09/30 04:38:26;;;;;;;9.97;5.07;;;;;;;13.34;100.00;102195.81;6137260;28;20259;-70
2023/09/30 04:41:47;;;;;;;13.87;4.50;;;;;;;13.14;100.00;102188.38;6138754;28;20224;-70
2023/09/30 04:45:11;;;;;;;9.03;4.10;;;;;;;13.30;100.00;102196.19;6139814;29;20236;-70
2023/09/30 04:48:32;;;;;;;7.23;3.70;;;;;;;13.30;100.00;102198.91;6138154;28;20242;-70
2023/09/30 04:51:53;;;;;;;8.07;4.33;;;;;;;13.30;100.00;102204.31;6138231;28;20239;-70
2023/09/30 04:55:16;;;;;;;7.77;4.30;;;;;;;13.19;100.00;102202.44;6133605;29;20523;-70
2023/09/30 04:58:36;;;;;;;7.67;3.83;;;;;;;13.33;100.00;102202.22;6141240;28;20487;-69
2023/09/30 05:02:00;;;;;;;7.73;3.40;;;;;;;13.21;100.00;102194.19;6132321;28;20702;-70
2023/09/30 05:05:21;;;;;;;10.07;5.30;;;;;;;13.19;100.00;102191.63;6133578;29;20243;-70
2023/09/30 05:08:42;;;;;;;6.70;3.77;;;;;;;13.14;100.00;102193.81;6132701;28;20226;-70
2023/09/30 05:12:04;;;;;;;5.37;4.07;;;;;;;13.22;100.00;102210.34;6138830;28;20290;-70
2023/09/30 05:15:25;;;;;;;8.03;3.87;;;;;;;13.27;100.00;102210.81;6130973;29;20239;-70
2023/09/30 05:18:48;;;;;;;6.97;4.70;;;;;;;13.26;100.00;102219.06;6143171;28;20235;-70
2023/09/30 05:22:08;;;;;;;10.40;5.27;;;;;;;13.33;100.00;102214.91;6114813;29;20255;-70
2023/09/30 05:25:29;;;;;;;10.37;3.50;;;;;;;13.21;100.00;102229.41;6125357;28;20238;-70
2023/09/30 05:28:50;;;;;;;6.13;3.93;;;;;;;13.31;100.00;102214.16;6137355;29;20240;-70
2023/09/30 05:32:12;;;;;;;6.93;3.30;;;;;;;13.22;100.00;102202.22;6135037;28;20231;-69
2023/09/30 05:35:34;;;;;;;6.27;3.17;;;;;;;13.31;100.00;102219.56;6133921;28;20228;-70
2023/09/30 05:38:56;;;;;;;7.27;3.80;;;;;;;13.20;100.00;102217.72;6136210;28;20286;-71
2023/09/30 05:42:18;;;;;;;14.13;4.47;;;;;;;13.21;100.00;102216.72;6133519;28;20314;-70
2023/09/30 05:45:40;;;;;;;6.17;3.70;;;;;;;13.22;100.00;102233.84;6137081;29;20329;-70
2023/09/30 05:49:01;;;;;;;12.00;3.67;;;;;;;13.27;100.00;102237.03;6137784;28;20228;-70
2023/09/30 05:52:23;;;;;;;12.10;4.43;;;;;;;13.22;100.00;102239.25;6133570;28;20227;-69
2023/09/30 05:55:45;;;;;;;7.87;3.37;;;;;;;13.26;100.00;102243.44;6140038;29;20239;-70
2023/09/30 05:59:06;;;;;;;13.47;4.10;;;;;;;13.18;100.00;102230.53;6139759;29;20313;-69
2023/09/30 06:02:27;;;;;;;12.43;5.07;;;;;;;13.34;100.00;102239.16;6133396;28;20235;-70
2023/09/30 06:05:48;;;;;;;9.37;3.60;;;;;;;13.42;100.00;102249.38;6133273;29;20537;-70
2023/09/30 06:09:11;;;;;;;8.73;3.97;;;;;;;13.35;100.00;102259.00;6135493;28;20230;-69
2023/09/30 06:12:32;;;;;;;5.13;3.60;;;;;;;13.41;100.00;102272.91;6139665;28;20231;-70
2023/09/30 06:15:53;;;;;;;9.03;4.07;;;;;;;13.37;100.00;102273.28;6131367;29;20232;-71
2023/09/30 06:19:13;;;;;;;7.10;4.87;;;;;;;13.40;100.00;102275.72;6121877;28;20616;-70
2023/09/30 06:22:34;;;;;;;9.63;4.53;;;;;;;13.32;100.00;102278.19;6138766;28;20537;-70
2023/09/30 06:25:56;;;;;;;7.73;4.00;;;;;;;13.24;100.00;102270.66;6139271;29;20239;-69
2023/09/30 06:29:17;;;;;;;6.20;3.73;;;;;;;13.34;100.00;102281.63;6135355;28;20231;-71
2023/09/30 06:32:38;;;;;;;10.07;4.57;;;;;;;13.30;100.00;102285.56;6132969;29;20250;-68
2023/09/30 06:36:02;;;;;;;6.13;3.30;;;;;;;13.30;100.00;102290.97;6135650;29;20231;-70
2023/09/30 06:39:22;;;;;;;5.33;3.33;;;;;;;13.41;100.00;102293.72;6131134;28;20305;-70
2023/09/30 06:42:45;;;;;;;9.93;4.83;;;;;;;13.51;100.00;102305.56;6138768;28;20636;-70
2023/09/30 06:46:07;;;;;;;6.13;3.87;;;;;;;13.52;100.00;102301.84;6135411;28;20243;-70
2023/09/30 06:49:29;;;;;;;9.83;4.90;;;;;;;13.73;100.00;102297.47;6138600;28;20358;-70
2023/09/30 06:52:50;;;;;;;6.40;3.70;;;;;;;13.67;100.00;102306.06;6134694;29;20227;-70
2023/09/30 06:56:13;;;;;;;8.27;3.80;;;;;;;13.69;100.00;102306.81;6136975;29;20303;-70
2023/09/30 06:59:35;;;;;;;8.23;3.63;;;;;;;13.86;100.00;102310.91;6137045;28;20238;-71
2023/09/30 07:02:56;;;;;;;9.17;4.07;;;;;;;13.89;100.00;102305.25;6137209;28;20226;-70
2023/09/30 07:06:23;;;;;;;3.33;2.97;;;;;;;13.96;100.00;102315.47;6140676;28;20235;-70
2023/09/30 07:09:45;;;;;;;4.47;3.00;;;;;;;13.91;100.00;102320.41;6136638;28;20235;-70
2023/09/30 07:13:07;;;;;;;10.50;4.10;;;;;;;14.10;100.00;102315.22;6136275;28;20239;-71
2023/09/30 07:16:29;;;;;;;5.67;3.23;;;;;;;14.29;100.00;102323.63;6142360;28;20250;-70
2023/09/30 07:19:50;;;;;;;7.97;5.13;;;;;;;14.21;100.00;102317.06;6141434;28;20296;-70
2023/09/30 07:23:13;;;;;;;4.63;3.77;;;;;;;14.47;100.00;102340.28;6141205;28;20242;-70
2023/09/30 07:26:33;;;;;;;6.27;3.50;;;;;;;14.49;100.00;102337.44;6141324;29;20293;-70
2023/09/30 07:29:54;;;;;;;5.27;3.23;;;;;;;14.53;100.00;102336.19;6140095;28;20239;-71
2023/09/30 07:33:17;;;;;;;7.77;3.43;;;;;;;14.59;100.00;102341.97;6144301;29;20677;-69
2023/09/30 07:36:38;;;;;;;8.00;5.10;;;;;;;14.64;100.00;102350.63;6132317;28;20239;-70
2023/09/30 07:39:59;;;;;;;5.17;3.33;;;;;;;14.80;100.00;102353.78;6140728;29;20239;-70
2023/09/30 07:43:22;;;;;;;11.07;3.23;;;;;;;14.77;100.00;102351.31;6143465;29;20283;-70
2023/09/30 07:46:43;;;;;;;9.60;3.33;;;;;;;14.79;99.19;102343.06;6137167;28;20231;-70
2023/09/30 07:50:09;;;;;;;4.83;3.37;;;;;;;14.95;98.52;102348.94;6139669;28;20223;-70
2023/09/30 07:53:30;;;;;;;5.47;4.07;;;;;;;15.02;97.47;102342.84;6133265;28;20271;-71
2023/09/30 07:56:51;;;;;;;9.50;4.37;;;;;;;15.16;97.47;102347.13;6135002;28;20239;-70
2023/09/30 08:00:15;;;;;;;6.90;2.63;;;;;;;15.26;96.03;102344.47;6131595;28;20239;-71
2023/09/30 08:03:36;;;;;;;12.50;3.80;;;;;;;15.44;95.86;102356.50;6138094;28;20243;-71
2023/09/30 08:06:58;;;;;;;5.20;3.83;;;;;;;15.51;94.95;102366.75;6123125;28;20231;-70
2023/09/30 08:10:19;;;;;;;6.87;3.53;;;;;;;15.72;94.21;102358.59;6139822;28;20243;-71
2023/09/30 08:13:40;;;;;;;9.17;3.17;;;;;;;15.88;93.79;102362.56;6137991;29;20762;-71
2023/09/30 08:17:02;;;;;;;6.20;3.07;;;;;;;16.03;93.03;102363.09;6129394;28;20587;-71
2023/09/30 08:20:23;;;;;;;6.97;2.87;;;;;;;15.61;92.70;102359.53;6129612;29;20231;-71
2023/09/30 08:23:45;;;;;;;5.83;2.80;;;;;;;15.99;92.93;102380.66;6138003;28;20232;-71
2023/09/30 08:27:06;;;;;;;7.57;2.93;;;;;;;16.12;92.21;102385.91;6137283;29;20246;-71
2023/09/30 08:30:27;;;;;;;7.80;2.87;;;;;;;16.34;91.11;102386.56;6133947;29;20231;-70
2023/09/30 08:33:48;;;;;;;7.50;2.83;;;;;;;16.31;90.51;102386.84;6137299;28;20219;-70
2023/09/30 08:37:10;;;;;;;6.77;3.33;;;;;;;16.24;90.81;102388.41;6133703;28;20235;-70
2023/09/30 08:40:32;;;;;;;6.40;3.23;;;;;;;16.57;89.58;102388.16;6131758;28;20573;-70
2023/09/30 08:43:57;;;;;;;5.27;3.50;;;;;;;16.95;88.51;102381.06;6131619;29;20239;-70
2023/09/30 08:47:18;;;;;;;8.67;3.07;;;;;;;16.38;88.88;102393.47;6134456;28;20234;-70
2023/09/30 08:50:42;;;;;;;8.60;3.85;;;;;;;16.72;88.26;102378.59;6141689;28;20231;-70
2023/09/30 08:54:05;;;;;;;8.07;3.33;;;;;;;17.09;87.21;102386.97;6133490;29;20669;-70
2023/09/30 08:57:29;;;;;;;6.63;3.33;;;;;;;16.89;87.28;102385.22;6141085;29;20240;-70
2023/09/30 09:00:50;;;;;;;9.80;3.73;;;;;;;16.95;87.04;102394.69;6135855;28;20243;-70
2023/09/30 09:04:12;;;;;;;4.77;3.77;;;;;;;17.23;86.40;102393.91;6131382;28;20258;-70
2023/09/30 09:07:33;;;;;;;5.20;2.40;;;;;;;17.53;85.42;102397.38;6136345;28;20656;-70
2023/09/30 09:10:57;;;;;;;7.95;3.05;;;;;;;17.83;83.95;102388.16;6133150;28;20543;-71
2023/09/30 09:14:19;;;;;;;8.82;2.70;;;;;;;17.33;84.33;102401.09;6133857;29;20220;-71
2023/09/30 09:17:42;;;;;;;12.85;3.17;;;;;;;17.13;84.90;102407.50;6136184;28;20322;-70
2023/09/30 09:21:09;;;;;;;6.63;2.28;;;;;;;17.42;85.07;102407.50;6136190;28;20553;-70
2023/09/30 09:24:31;;;;;;;6.60;2.40;;;;;;;17.35;85.04;102406.38;6141601;28;20239;-71
2023/09/30 09:27:53;;;;;;;4.43;2.25;;;;;;;17.88;83.30;102402.22;6134173;28;20251;-71
2023/09/30 09:31:22;;;;;;;3.80;2.13;;;;;;;17.81;82.82;102403.81;6133897;28;20243;-70
2023/09/30 09:34:44;;;;;;;9.35;2.75;;;;;;;17.93;82.36;102402.66;6136213;29;20231;-71
2023/09/30 09:38:07;;;;;;;4.45;2.47;;;;;;;18.25;81.54;102410.47;6137468;29;20271;-70
2023/09/30 09:41:28;;;;;;;4.85;2.58;;;;;;;18.35;80.61;102417.63;6141238;29;20321;-70
2023/09/30 09:44:49;;;;;;;8.57;2.97;;;;;;;18.28;80.23;102421.09;6133909;28;21083;-71
2023/09/30 09:48:12;;;;;;;5.85;2.95;;;;;;;18.67;79.99;102414.47;6133272;28;20528;-71
2023/09/30 09:51:33;;;;;;;3.47;2.03;;;;;;;19.11;77.74;102407.31;6137889;28;20228;-71
2023/09/30 09:54:57;;;;;;;6.55;2.78;;;;;;;18.73;79.27;102411.16;6131728;29;20522;-70
2023/09/30 09:58:21;;;;;;;6.57;2.47;;;;;;;19.20;77.65;102409.16;6137992;29;20250;-71
2023/09/30 10:01:45;;;;;;;6.80;2.70;;;;;;;19.05;77.32;102411.56;6128810;28;20250;-71
2023/09/30 10:05:09;;;;;;;7.38;2.65;;;;;;;19.29;76.20;102397.28;6134018;29;20235;-69
2023/09/30 10:08:34;;;;;;;4.28;2.85;;;;;;;19.90;74.40;102406.41;6130043;29;20235;-69
2023/09/30 10:11:59;;;;;;;4.43;2.53;;;;;;;22.43;66.17;102404.03;6125759;28;20409;-70
2023/09/30 10:15:42;;;;;;;15.13;4.38;;;;;;;24.33;58.50;102400.44;6134186;29;20219;-70
2023/09/30 10:19:09;;;;;;;5.30;2.65;;;;;;;27.16;51.80;102400.22;6128855;28;20231;-70
2023/09/30 10:22:32;;;;;;;6.68;3.00;;;;;;;25.76;51.04;102406.09;6126768;29;20321;-70
2023/09/30 10:25:57;;;;;;;4.47;1.55;;;;;;;24.12;54.51;102416.84;6131901;29;20239;-70
2023/09/30 10:29:18;;;;;;;4.75;2.13;;;;;;;25.69;51.24;102415.34;6135918;28;20227;-70
2023/09/30 10:33:11;;;;;;;5.53;2.10;;;;;;;25.25;50.32;102421.00;6133740;28;20227;-69
2023/09/30 10:36:33;;;;;;;4.60;1.95;;;;;;;26.53;49.61;102423.53;6123254;29;20244;-70
2023/09/30 10:39:58;;;;;;;4.40;2.13;;;;;;;22.96;54.85;102422.63;6127215;28;20243;-69
2023/09/30 10:43:30;;;;;;;4.55;2.10;;;;;;;26.32;49.50;102423.59;6146284;29;20231;-70
2023/09/30 10:46:52;;;;;;;8.65;2.67;;;;;;;24.83;50.95;102431.94;6137888;28;20680;-70
2023/09/30 10:50:46;;;;;;;4.03;1.83;;;;;;;27.10;46.98;102427.91;6141125;28;20236;-70
2023/09/30 10:54:07;;;;;;;7.40;2.53;;;;;;;26.48;47.83;102417.75;6136732;28;20235;-70
2023/09/30 10:57:29;;;;;;;5.40;1.67;;;;;;;27.22;45.82;102418.81;6143543;29;20224;-70
2023/09/30 11:00:54;;;;;;;6.60;2.10;;;;;;;22.41;56.36;102430.84;6134482;28;20231;-69
2023/09/30 11:04:15;;;;;;;5.03;1.95;;;;;;;27.07;47.09;102423.63;6142459;29;20234;-70
2023/09/30 11:07:39;;;;;;;2.60;1.73;;;;;;;28.62;43.76;102422.38;6137571;29;20849;-70
2023/09/30 11:11:03;;;;;;;4.20;1.80;;;;;;;28.39;42.79;102420.88;6144404;28;20239;-70
2023/09/30 11:14:27;;;;;;;5.43;1.60;;;;;;;24.31;49.48;102437.50;6138156;28;20251;-70
2023/09/30 11:17:47;;;;;;;5.40;2.30;;;;;;;25.52;48.62;102423.03;6141936;28;20497;-70
2023/09/30 11:21:11;;;;;;;3.20;1.50;;;;;;;28.08;43.61;102422.63;6143134;28;20231;-70
2023/09/30 11:24:37;;;;;;;4.78;2.10;;;;;;;27.29;44.95;102438.19;6144450;28;20622;-72
2023/09/30 11:28:13;;;;;;;4.55;1.85;;;;;;;27.89;42.89;102410.41;6138179;29;20299;-70
2023/09/30 11:31:38;;;;;;;6.20;2.22;;;;;;;26.87;44.86;102412.47;6138436;28;20251;-71
2023/09/30 11:34:58;;;;;;;6.88;1.55;;;;;;;27.54;43.23;102398.66;6139927;29;20318;-71
2023/09/30 11:38:19;;;;;;;4.97;2.22;;;;;;;28.03;43.02;102397.44;6142838;29;20231;-71
2023/09/30 11:41:43;;;;;;;2.65;1.48;;;;;;;26.84;44.41;102400.94;6138878;28;20231;-71
2023/09/30 11:45:19;;;;;;;4.25;1.55;;;;;;;24.78;46.67;102413.22;6138320;28;20227;-70
2023/09/30 11:48:57;;;;;;;3.60;2.08;;;;;;;26.79;43.42;102400.69;6145767;28;22811;-71
2023/09/30 11:52:27;;;;;;;4.90;1.70;;;;;;;26.74;43.11;102401.31;6138599;28;20227;-71
2023/09/30 11:55:48;;;;;;;3.65;1.65;;;;;;;26.62;43.63;102408.47;6136288;29;20239;-71
2023/09/30 11:59:10;;;;;;;2.63;1.52;;;;;;;26.67;44.41;102411.47;6134073;28;20239;-71
2023/09/30 12:02:31;;;;;;;5.00;1.90;;;;;;;25.31;45.84;102428.50;6133393;29;20227;-70
2023/09/30 12:05:55;;;;;;;2.55;1.30;;;;;;;23.56;48.72;102423.66;6131829;28;20235;-70
2023/09/30 12:09:22;;;;;;;9.43;2.17;;;;;;;25.72;46.92;102406.69;6138999;28;20587;-71
2023/09/30 12:12:44;;;;;;;3.30;1.60;;;;;;;28.25;42.50;102397.00;6134443;28;20231;-70
2023/09/30 12:16:05;;;;;;;4.18;2.03;;;;;;;25.38;45.53;102394.41;6141702;28;20235;-70
2023/09/30 12:19:26;;;;;;;2.22;1.60;;;;;;;23.43;49.30;102393.13;6136744;28;20279;-70
2023/09/30 12:22:48;;;;;;;2.85;1.13;;;;;;;23.80;50.19;102393.16;6140041;28;20219;-70
2023/09/30 12:26:09;;;;;;;4.15;1.95;;;;;;;24.30;48.79;102394.44;6143560;28;20231;-68
2023/09/30 12:29:30;;;;;;;5.70;1.98;;;;;;;23.54;50.33;102398.22;6129514;28;20247;-69
2023/09/30 12:32:51;;;;;;;3.50;1.45;;;;;;;23.89;51.82;102393.94;6134361;28;21073;-71
2023/09/30 12:36:13;;;;;;;6.00;1.73;;;;;;;26.17;46.01;102392.41;6135984;28;20240;-70
2023/09/30 12:39:36;;;;;;;3.35;1.70;;;;;;;27.98;42.25;102394.44;6141331;28;20645;-70
2023/09/30 12:42:57;;;;;;;8.57;1.55;;;;;;;27.47;42.08;102388.63;6136292;28;20239;-69
2023/09/30 12:46:18;;;;;;;4.35;1.67;;;;;;;28.41;40.54;102385.41;6132259;28;20232;-70
2023/09/30 12:49:39;;;;;;;2.78;1.50;;;;;;;25.37;43.06;102391.81;6133520;28;20235;-71
2023/09/30 12:53:00;;;;;;;3.25;1.25;;;;;;;23.62;46.34;102395.38;6136091;28;20243;-70
2023/09/30 12:56:22;;;;;;;3.58;1.40;;;;;;;24.11;47.35;102387.56;6124846;28;20247;-70
2023/09/30 12:59:45;;;;;;;4.95;1.83;;;;;;;25.30;45.54;102374.34;6136215;28;20232;-71
2023/09/30 13:03:07;;;;;;;3.88;1.50;;;;;;;24.34;46.30;102376.47;6126420;28;20248;-70
2023/09/30 13:06:28;;;;;;;3.58;1.58;;;;;;;23.36;47.47;102388.53;6132131;28;20246;-70
2023/09/30 13:09:49;;;;;;;6.00;1.77;;;;;;;21.35;52.74;102396.19;6127733;28;20272;-70
2023/09/30 13:13:12;;;;;;;3.75;2.17;;;;;;;20.50;56.81;102379.97;6124341;29;20231;-70
2023/09/30 13:16:33;;;;;;;3.72;1.60;;;;;;;20.32;59.17;102384.66;6137043;29;20231;-70
2023/09/30 13:19:55;;;;;;;3.58;1.50;;;;;;;20.16;60.08;102390.00;6136782;29;20969;-69
2023/09/30 13:23:16;;;;;;;5.80;1.63;;;;;;;22.03;55.79;102376.66;6140797;28;20226;-69
2023/09/30 13:26:37;;;;;;;2.17;1.35;;;;;;;24.05;50.56;102368.19;6137634;29;20238;-70
2023/09/30 13:29:59;;;;;;;6.63;1.60;;;;;;;24.24;48.88;102365.69;6132737;29;20232;-70
2023/09/30 13:33:21;;;;;;;3.80;1.25;;;;;;;24.44;49.53;102371.53;6134533;28;20235;-69
2023/09/30 13:36:42;;;;;;;2.92;1.75;;;;;;;25.25;47.56;102360.25;6136790;28;20231;-69
2023/09/30 13:40:04;;;;;;;7.55;2.15;;;;;;;24.98;47.99;102364.63;6135920;28;20277;-69
2023/09/30 13:43:26;;;;;;;3.55;1.55;;;;;;;25.72;46.02;102356.94;6136355;29;20506;-70
2023/09/30 13:46:48;;;;;;;7.82;1.80;;;;;;;24.27;47.38;102359.81;6130721;28;20523;-70
2023/09/30 13:50:10;;;;;;;6.65;2.20;;;;;;;23.80;48.39;102354.59;6134818;28;20232;-70
2023/09/30 13:53:32;;;;;;;4.82;1.92;;;;;;;23.73;49.30;102366.53;6132289;29;20247;-69
2023/09/30 13:56:53;;;;;;;12.85;1.83;;;;;;;24.29;48.43;102356.88;6135658;29;20223;-69
2023/09/30 14:00:16;;;;;;;3.00;1.88;;;;;;;23.07;50.19;102367.19;6135572;29;20235;-69
2023/09/30 14:03:40;;;;;;;9.18;2.78;;;;;;;23.50;50.05;102365.72;6139297;29;20247;-69
2023/09/30 14:07:02;;;;;;;7.88;2.92;;;;;;;21.24;53.90;102366.34;6129239;29;20657;-69
2023/09/30 14:10:24;;;;;;;2.05;1.55;;;;;;;21.04;55.50;102375.91;6132177;28;20286;-69
2023/09/30 14:13:45;;;;;;;3.65;1.70;;;;;;;19.82;58.51;102375.38;6137005;28;20231;-69
2023/09/30 14:17:09;;;;;;;3.45;1.85;;;;;;;20.06;59.04;102375.56;6145489;28;20239;-69
2023/09/30 14:20:33;;;;;;;2.50;1.73;;;;;;;20.09;59.64;102377.13;6137492;28;20231;-69
2023/09/30 14:23:54;;;;;;;3.00;1.17;;;;;;;19.75;61.24;102372.44;6138017;28;20282;-69
2023/09/30 14:27:15;;;;;;;2.92;1.40;;;;;;;19.17;62.79;102373.06;6135974;29;20234;-69
2023/09/30 14:30:36;;;;;;;4.10;1.73;;;;;;;19.17;63.28;102371.16;6140732;28;20243;-68
2023/09/30 14:33:57;;;;;;;6.10;2.03;;;;;;;19.22;64.32;102373.44;6141890;28;20231;-70
2023/09/30 14:37:19;;;;;;;6.53;2.92;;;;;;;19.52;63.59;102370.34;6146619;28;20234;-70
2023/09/30 14:40:41;;;;;;;5.00;2.05;;;;;;;19.27;64.27;102362.91;6142626;29;20330;-69
2023/09/30 14:44:03;;;;;;;2.90;1.65;;;;;;;19.45;64.24;102364.66;6137457;28;20231;-68
2023/09/30 14:47:24;;;;;;;5.18;1.63;;;;;;;19.14;64.30;102368.75;6139327;29;20239;-69
2023/09/30 14:50:51;;;;;;;4.22;2.28;;;;;;;18.84;65.59;102356.28;6137061;28;20239;-69
2023/09/30 14:54:14;;;;;;;5.55;1.98;;;;;;;19.14;65.73;102353.22;6138741;28;20263;-69
2023/09/30 14:57:35;;;;;;;4.05;2.15;;;;;;;19.25;65.39;102354.88;6139760;29;20310;-69
2023/09/30 15:00:56;;;;;;;3.55;1.75;;;;;;;19.35;65.18;102343.88;6134980;29;20235;-69
2023/09/30 15:04:17;;;;;;;2.95;1.58;;;;;;;19.30;65.69;102354.38;6139886;29;20231;-70
2023/09/30 15:07:38;;;;;;;4.35;1.50;;;;;;;19.24;65.24;102353.13;6133495;29;20388;-70
2023/09/30 15:11:00;;;;;;;3.03;1.60;;;;;;;19.75;64.18;102355.16;6138265;28;20235;-70
2023/09/30 15:14:21;;;;;;;3.53;1.70;;;;;;;19.82;63.48;102354.34;6137901;29;20246;-69
2023/09/30 15:17:42;;;;;;;5.25;2.53;;;;;;;19.82;63.57;102356.22;6139319;28;20227;-70
2023/09/30 15:21:03;;;;;;;4.85;1.77;;;;;;;19.65;63.70;102357.97;6142009;28;20258;-72
2023/09/30 15:24:24;;;;;;;7.03;3.38;;;;;;;19.60;64.55;102362.22;6135799;28;20634;-70
2023/09/30 15:27:47;;;;;;;4.43;3.13;;;;;;;19.27;65.24;102361.03;6144567;29;20231;-69
2023/09/30 15:31:08;;;;;;;8.50;4.05;;;;;;;19.34;65.86;102353.94;6140700;28;20334;-70
2023/09/30 15:34:29;;;;;;;3.92;1.95;;;;;;;19.15;66.04;102349.44;6141320;28;20521;-69